Historique des mesures à Cassis (13260), France
Quotidien Résumé Octobre 24, 2017 Unités:  Métrique    US   Métrique/US
« Précédent (Jour)
Suivant (Jour) »
Quotidien Hebdomadaire Mensuel Annuel Période au choix
  Maximum: Minimum: Moyenne:
Température: TemperatureC °C 14.1 °C 15.9 °C
Point de rosée: DewpointC °C 3.2 °C 5 °C
Humidité: Humidity % 38 % 45 %
Vitesse du vent: 0 km/h 0 km/h 7.9 km/h
Rafales: 0 km/h - -
Vent:- - ESE
Pression: PressurehPa hPa 1015.1 hPa -
Précipitations: 0.0 mm    
Historical Graphs
 
 
Mesures pour : Octobre 24, 2017
Heure Temperature Point de rosée Pression Vent Vitesse du vent Rafales Humidité Pluie (par heure) Conditions
TemperatureC °C DewpointC °C PressurehPa hPa Calm     Humidity % HourlyPrecipMM mm SoftwareType W/m2
00:11 15.0 °C 5.2 °C 1015.1 hPa NE 9.8 km/h 12.2 km/h 52 % 0.0 mm open2300-1.11 W/m2
01:11 14.9 °C 5.1 °C 1015.5 hPa Calm   7.6 km/h 52 % 0.0 mm open2300-1.11 W/m2
02:11 14.5 °C 4.8 °C 1015.8 hPa NNW 21.6 km/h 21.6 km/h 52 % 0.0 mm open2300-1.11 W/m2
03:11 14.6 °C 4.9 °C 1015.5 hPa NE 9.3 km/h 34.1 km/h 52 % 0.0 mm open2300-1.11 W/m2
04:11 14.3 °C 4.8 °C 1016.1 hPa NW 23.8 km/h 23.8 km/h 53 % 0.0 mm open2300-1.11 W/m2
05:11 14.4 °C 4.2 °C 1016.1 hPa NNW 20.3 km/h 20.3 km/h 50 % 0.0 mm open2300-1.11 W/m2
06:11 14.6 °C 4.0 °C 1016.5 hPa NNW 5.6 km/h 29.5 km/h 49 % 0.0 mm open2300-1.11 W/m2
07:11 14.4 °C 3.8 °C 1016.8 hPa North 9.8 km/h 34.8 km/h 49 % 0.0 mm open2300-1.11 W/m2
08:11 14.1 °C 3.9 °C 1016.5 hPa NNE 17.9 km/h 17.9 km/h 50 % 0.0 mm open2300-1.11 W/m2
09:11 14.8 °C 4.2 °C 1017.2 hPa ENE 6.4 km/h 6.4 km/h 49 % 0.0 mm open2300-1.11 W/m2
10:11 15.6 °C 4.3 °C 1017.5 hPa North 10.3 km/h 11.6 km/h 47 % 0.0 mm open2300-1.11 W/m2
11:11 16.5 °C 4.8 °C 1017.8 hPa North 6.4 km/h 8.9 km/h 46 % 0.0 mm open2300-1.11 W/m2
12:11 18.8 °C 5.9 °C 1017.8 hPa NNE 5.6 km/h 11.6 km/h 43 % 0.0 mm open2300-1.11 W/m2
13:11 20.3 °C 5.4 °C 1017.5 hPa Calm   10.3 km/h 38 % 0.0 mm open2300-1.11 W/m2
14:11 20.5 °C 7.4 °C 1017.2 hPa SSE 17.4 km/h 17.4 km/h 43 % 0.0 mm open2300-1.11 W/m2
15:11 20.5 °C 8.1 °C 1016.8 hPa South 2.3 km/h 9.8 km/h 45 % 0.0 mm open2300-1.11 W/m2
16:11 20.3 °C 9.2 °C 1016.8 hPa SSE 10.9 km/h 10.9 km/h 49 % 0.0 mm open2300-1.11 W/m2
17:11 20.1 °C 8.7 °C 1017.2 hPa SE 3.4 km/h 6.4 km/h 48 % 0.0 mm open2300-1.11 W/m2
18:11 19.4 °C 6.8 °C 1017.2 hPa Calm     44 % 0.0 mm open2300-1.11 W/m2
19:12 17.7 °C 4.6 °C 1017.8 hPa Calm   2.3 km/h 42 % 0.0 mm open2300-1.11 W/m2
20:11 16.3 °C 3.9 °C 1017.8 hPa Calm   5.1 km/h 44 % 0.0 mm open2300-1.11 W/m2
22:11 15.5 °C 3.2 °C 1018.5 hPa North 2.3 km/h 4.2 km/h 44 % 0.0 mm open2300-1.11 W/m2
23:11 15.3 °C 3.4 °C 1018.5 hPa North 4.2 km/h 4.7 km/h 45 % 0.0 mm open2300-1.11 W/m2
Observations météo à CASSIS
WU-History script by Weather Underground - 1 mb